createdAt,value
2018-11-14T00:00:32.185Z,80.11
2018-11-14T00:03:03.015Z,79.98
2018-11-14T00:05:32.381Z,80.27
2018-11-14T00:08:02.581Z,80.14
2018-11-14T00:10:31.855Z,79.40
2018-11-14T00:13:01.155Z,80.06
2018-11-14T00:15:30.815Z,81.36
2018-11-14T00:18:00.136Z,81.52
2018-11-14T00:20:29.410Z,81.52
2018-11-14T00:22:58.752Z,81.83
2018-11-14T00:25:29.045Z,81.75
2018-11-14T00:27:58.483Z,81.92
2018-11-14T00:30:27.742Z,82.84
2018-11-14T00:32:57.058Z,82.36
2018-11-14T00:35:26.374Z,82.19
2018-11-14T00:37:55.811Z,82.04
2018-11-14T00:40:25.269Z,81.44
2018-11-14T00:42:54.562Z,81.70
2018-11-14T00:45:23.867Z,82.57
2018-11-14T00:47:53.119Z,82.62
2018-11-14T00:50:22.427Z,82.24
2018-11-14T00:52:51.878Z,82.46
2018-11-14T00:55:22.372Z,82.51
2018-11-14T00:57:53.412Z,82.39
2018-11-14T01:00:23.916Z,82.12
2018-11-14T01:02:53.292Z,82.55
2018-11-14T01:05:22.657Z,81.93
2018-11-14T01:07:51.911Z,82.14
2018-11-14T01:10:22.372Z,81.94
2018-11-14T01:12:52.427Z,82.25
2018-11-14T01:15:22.831Z,81.93
2018-11-14T01:17:52.115Z,82.04
2018-11-14T01:20:22.665Z,82.47
2018-11-14T01:22:51.948Z,83.15
2018-11-14T01:25:21.267Z,83.24
2018-11-14T01:27:50.572Z,82.70
2018-11-14T01:30:23.114Z,82.90
2018-11-14T01:32:53.071Z,82.30
2018-11-14T01:35:22.663Z,82.37
2018-11-14T01:37:51.921Z,81.85
2018-11-14T01:40:24.508Z,82.23
2018-11-14T01:42:55.052Z,82.00
2018-11-14T01:45:24.379Z,81.67
2018-11-14T01:47:53.690Z,83.72
2018-11-14T01:50:23.028Z,83.49
2018-11-14T01:52:52.454Z,83.79
2018-11-14T01:55:22.192Z,83.66
2018-11-14T01:57:51.469Z,83.63
2018-11-14T02:00:22.055Z,85.29
2018-11-14T02:02:51.943Z,84.42
2018-11-14T02:05:21.205Z,84.51
2018-11-14T02:07:50.580Z,84.54
2018-11-14T02:10:21.039Z,84.13
2018-11-14T02:12:50.339Z,84.10
2018-11-14T02:15:21.934Z,84.90
2018-11-14T02:17:51.599Z,84.54
2018-11-14T02:20:20.875Z,84.48
2018-11-14T02:22:50.632Z,84.37
2018-11-14T02:25:20.223Z,83.44
2018-11-14T02:27:49.530Z,83.02
2018-11-14T02:30:23.061Z,82.52
2018-11-14T02:32:52.437Z,82.89
2018-11-14T02:35:21.728Z,83.42
2018-11-14T02:37:51.050Z,84.00
2018-11-14T02:40:21.440Z,83.98
2018-11-14T02:42:50.937Z,84.30
2018-11-14T02:45:20.553Z,85.18
2018-11-14T02:47:49.851Z,85.51
2018-11-14T02:50:19.882Z,85.10
2018-11-14T02:52:49.225Z,84.22
2018-11-14T02:55:18.926Z,83.79
2018-11-14T02:57:48.407Z,84.70
2018-11-14T03:00:19.402Z,85.11
2018-11-14T03:02:48.722Z,84.47
2018-11-14T03:05:18.127Z,84.20
2018-11-14T03:07:47.917Z,83.61
2018-11-14T03:10:20.925Z,83.03
2018-11-14T03:12:50.328Z,84.48
2018-11-14T03:15:21.793Z,83.98
2018-11-14T03:17:51.107Z,84.50
2018-11-14T03:20:21.400Z,84.36
2018-11-14T03:22:50.713Z,84.77
2018-11-14T03:25:20.556Z,84.82
2018-11-14T03:27:49.857Z,85.08
2018-11-14T03:30:19.636Z,84.27
2018-11-14T03:32:49.012Z,84.49
2018-11-14T03:35:18.374Z,84.92
2018-11-14T03:37:47.642Z,84.58
2018-11-14T03:40:17.558Z,85.47
2018-11-14T03:42:46.865Z,85.96
2018-11-14T03:45:16.603Z,85.63
2018-11-14T03:47:46.199Z,85.17
2018-11-14T03:50:15.482Z,84.66
2018-11-14T03:52:44.829Z,84.82
2018-11-14T03:55:14.151Z,84.51
2018-11-14T03:57:43.407Z,84.58
2018-11-14T04:00:16.824Z,84.26
2018-11-14T04:02:47.134Z,84.26
2018-11-14T04:05:16.641Z,84.63
2018-11-14T04:07:46.951Z,84.87
2018-11-14T04:10:16.304Z,85.58
2018-11-14T04:12:45.606Z,85.51
2018-11-14T04:15:15.766Z,85.35
2018-11-14T04:17:45.055Z,85.25
2018-11-14T04:20:15.611Z,85.26
2018-11-14T04:22:45.452Z,84.81
2018-11-14T04:25:16.478Z,85.11
2018-11-14T04:27:46.348Z,85.42
2018-11-14T04:30:18.995Z,86.06
2018-11-14T04:32:48.274Z,84.85
2018-11-14T04:35:18.429Z,84.44
2018-11-14T04:37:47.722Z,84.37
2018-11-14T04:40:19.616Z,85.84
2018-11-14T04:42:49.004Z,85.85
2018-11-14T04:45:23.478Z,86.35
2018-11-14T04:47:53.025Z,86.13
2018-11-14T04:50:24.335Z,84.80
2018-11-14T04:52:54.095Z,84.13
2018-11-14T04:55:24.519Z,85.24
2018-11-14T04:57:53.792Z,85.35
2018-11-14T05:00:24.273Z,85.02
2018-11-14T05:02:53.707Z,84.55
2018-11-14T05:05:24.081Z,83.73
2018-11-14T05:07:53.779Z,83.66
2018-11-14T05:10:25.412Z,83.18
2018-11-14T05:12:54.810Z,83.47
2018-11-14T05:15:25.880Z,84.55
2018-11-14T05:17:55.841Z,83.99
2018-11-14T05:20:25.103Z,84.41
2018-11-14T05:22:54.413Z,84.60
2018-11-14T05:25:24.297Z,84.81
2018-11-14T05:27:53.553Z,85.00
2018-11-14T05:30:23.830Z,85.77
2018-11-14T05:32:53.668Z,85.20
2018-11-14T05:35:23.024Z,86.71
2018-11-14T05:37:52.263Z,85.87
2018-11-14T05:40:22.791Z,86.49
2018-11-14T05:42:52.893Z,86.41
2018-11-14T05:45:23.310Z,85.30
2018-11-14T05:47:52.694Z,84.72
2018-11-14T05:50:22.970Z,84.12
2018-11-14T05:52:52.260Z,83.91
2018-11-14T05:55:21.551Z,84.10
2018-11-14T05:57:53.647Z,83.56
2018-11-14T06:00:30.936Z,84.31
2018-11-14T06:03:01.314Z,83.22
2018-11-14T06:05:30.587Z,82.83
2018-11-14T06:07:59.974Z,82.42
2018-11-14T06:10:29.757Z,82.52
2018-11-14T06:12:59.072Z,82.00
2018-11-14T06:15:28.457Z,82.80
2018-11-14T06:17:58.686Z,82.15
2018-11-14T06:20:28.090Z,82.21
2018-11-14T06:22:57.644Z,81.96
2018-11-14T06:25:36.683Z,83.21
2018-11-14T06:28:07.503Z,82.66
2018-11-14T06:30:37.734Z,81.91
2018-11-14T06:33:08.244Z,81.73
2018-11-14T06:35:37.743Z,83.60
2018-11-14T06:38:07.081Z,85.77
2018-11-14T06:40:36.465Z,85.72
2018-11-14T06:43:06.080Z,86.40
2018-11-14T06:45:35.940Z,87.19
2018-11-14T06:48:06.261Z,86.62
2018-11-14T06:50:35.568Z,86.15
2018-11-14T06:53:06.224Z,84.88
2018-11-14T06:55:35.552Z,85.99
2018-11-14T06:58:04.999Z,85.69
2018-11-14T07:00:35.321Z,85.54
2018-11-14T07:03:05.876Z,84.97
2018-11-14T07:05:35.369Z,84.36
2018-11-14T07:08:04.749Z,83.66
2018-11-14T07:10:36.732Z,84.84
2018-11-14T07:13:07.450Z,85.13
2018-11-14T07:15:37.300Z,85.12
2018-11-14T07:18:07.771Z,85.42
2018-11-14T07:20:38.763Z,85.06
2018-11-14T07:23:08.308Z,87.37
2018-11-14T07:25:37.556Z,86.41
2018-11-14T07:28:07.069Z,85.37
2018-11-14T07:30:36.994Z,83.72
2018-11-14T07:33:07.682Z,82.93
2018-11-14T07:35:37.024Z,83.23
2018-11-14T07:38:33.418Z,84.82
2018-11-14T07:41:03.848Z,86.25
2018-11-14T07:43:34.294Z,86.16
2018-11-14T07:46:03.644Z,86.61
2018-11-14T07:48:33.425Z,87.21
2018-11-14T07:51:03.230Z,84.88
2018-11-14T07:53:33.242Z,85.86
2018-11-14T07:56:02.713Z,85.42
2018-11-14T07:58:32.345Z,85.04
2018-11-14T08:01:01.738Z,84.87
2018-11-14T08:03:31.036Z,85.47
2018-11-14T08:06:00.349Z,85.08
2018-11-14T08:08:29.781Z,84.25
2018-11-14T08:10:59.710Z,83.97
2018-11-14T08:13:30.379Z,84.86
2018-11-14T08:16:00.555Z,85.24
2018-11-14T08:18:29.943Z,84.35
2018-11-14T08:21:00.273Z,83.75
2018-11-14T08:23:29.687Z,84.02
2018-11-14T08:25:59.173Z,84.26
2018-11-14T08:28:28.509Z,85.34
2018-11-14T08:30:58.317Z,85.70
2018-11-14T08:33:27.650Z,85.48
2018-11-14T08:35:56.995Z,84.53
2018-11-14T08:38:26.340Z,82.93
2018-11-14T08:40:55.849Z,84.12
2018-11-14T08:43:25.171Z,82.87
2018-11-14T08:45:54.700Z,84.01
2018-11-14T08:48:23.980Z,83.23
2018-11-14T08:50:53.310Z,84.17
2018-11-14T08:53:22.859Z,84.81
2018-11-14T08:55:52.176Z,85.04
2018-11-14T08:58:21.565Z,83.43
2018-11-14T09:00:50.897Z,82.63
2018-11-14T09:03:20.188Z,83.32
2018-11-14T09:05:49.524Z,82.33
2018-11-14T09:08:18.848Z,84.54
2018-11-14T09:10:48.171Z,82.98
2018-11-14T09:13:18.080Z,82.88
2018-11-14T09:15:47.720Z,82.77
2018-11-14T09:18:17.086Z,81.92
2018-11-14T09:20:46.330Z,83.09
2018-11-14T09:23:15.642Z,84.13
2018-11-14T09:25:44.965Z,82.96
2018-11-14T09:28:14.350Z,82.15
2018-11-14T09:30:43.740Z,81.29
2018-11-14T09:33:13.131Z,80.30
2018-11-14T09:35:42.577Z,81.67
2018-11-14T09:38:12.443Z,82.20
2018-11-14T09:40:41.781Z,80.95
2018-11-14T09:43:11.096Z,80.05
2018-11-14T09:45:40.465Z,79.86
2018-11-14T09:48:09.818Z,82.22
2018-11-14T09:50:39.122Z,82.10
2018-11-14T09:53:08.569Z,81.64
2018-11-14T09:55:37.835Z,80.15
2018-11-14T09:58:07.240Z,81.38
2018-11-14T10:00:36.693Z,81.11
2018-11-14T10:03:13.541Z,82.13
2018-11-14T10:05:43.084Z,81.69
2018-11-14T10:08:12.415Z,81.16
2018-11-14T10:10:41.769Z,80.75
2018-11-14T10:13:11.097Z,80.73
2018-11-14T10:15:40.476Z,81.61
2018-11-14T10:18:09.734Z,81.00
2018-11-14T10:20:39.735Z,79.70
2018-11-14T10:23:09.030Z,78.46
2018-11-14T10:25:38.333Z,79.82
2018-11-14T10:28:07.783Z,78.40
2018-11-14T10:30:38.047Z,78.15
2018-11-14T10:33:07.433Z,77.61
2018-11-14T10:35:37.011Z,76.45
2018-11-14T10:38:06.473Z,75.38
2018-11-14T10:40:35.824Z,78.00
2018-11-14T10:43:05.592Z,79.72
2018-11-14T10:45:34.846Z,80.41
2018-11-14T10:48:04.155Z,79.82
2018-11-14T10:50:33.519Z,78.26
2018-11-14T10:53:02.824Z,77.95
2018-11-14T10:55:32.119Z,78.55
2018-11-14T10:58:01.448Z,80.27
2018-11-14T11:00:35.981Z,82.00
2018-11-14T11:03:10.968Z,81.86
2018-11-14T11:05:45.475Z,82.07
2018-11-14T11:08:20.640Z,82.45
2018-11-14T11:10:55.588Z,81.66
2018-11-14T11:13:30.317Z,80.32
2018-11-14T11:16:05.110Z,79.80
2018-11-14T11:18:35.976Z,80.56
2018-11-14T11:21:05.327Z,80.09
2018-11-14T11:23:34.728Z,80.58
2018-11-14T11:26:04.332Z,78.82
2018-11-14T11:28:33.741Z,79.16
2018-11-14T11:31:03.242Z,80.76
2018-11-14T11:33:32.696Z,80.95
2018-11-14T11:36:02.022Z,81.28
2018-11-14T11:38:31.324Z,80.47
2018-11-14T11:41:00.836Z,79.05
2018-11-14T11:43:30.221Z,78.70
2018-11-14T11:45:59.580Z,78.08
2018-11-14T11:48:28.867Z,77.89
2018-11-14T11:50:58.336Z,77.39
2018-11-14T11:53:27.653Z,77.40
2018-11-14T11:55:57.150Z,77.22
2018-11-14T11:58:26.465Z,77.21
2018-11-14T12:00:55.891Z,75.37
2018-11-14T12:03:25.396Z,75.88
2018-11-14T12:06:01.361Z,75.70
2018-11-14T12:08:30.647Z,75.66
2018-11-14T12:10:59.952Z,76.48
2018-11-14T12:13:29.300Z,76.15
2018-11-14T12:15:58.944Z,75.86
2018-11-14T12:18:28.275Z,75.91
2018-11-14T12:20:57.784Z,75.81
2018-11-14T12:23:27.491Z,75.59
2018-11-14T12:25:57.098Z,74.70
2018-11-14T12:28:26.421Z,74.15
2018-11-14T12:30:56.044Z,73.17
2018-11-14T12:33:25.231Z,73.11
2018-11-14T12:35:54.911Z,72.96
2018-11-14T12:38:24.412Z,73.15
2018-11-14T12:40:53.840Z,72.27
2018-11-14T12:43:23.207Z,72.00
2018-11-14T12:45:52.883Z,71.76
2018-11-14T12:48:22.185Z,71.10
2018-11-14T12:50:51.497Z,70.62
2018-11-14T12:53:20.827Z,69.69
2018-11-14T12:55:50.127Z,68.62
2018-11-14T12:58:19.563Z,69.49
2018-11-14T13:00:48.891Z,69.80
2018-11-14T13:03:18.171Z,70.50
2018-11-14T13:05:47.475Z,72.28
2018-11-14T13:08:17.212Z,71.90
2018-11-14T13:10:46.495Z,71.31
2018-11-14T13:13:15.818Z,70.28
2018-11-14T13:15:45.158Z,70.91
2018-11-14T13:18:14.588Z,70.88
2018-11-14T13:20:43.914Z,72.31
2018-11-14T13:23:13.261Z,71.80
2018-11-14T13:25:42.633Z,71.62
2018-11-14T13:28:11.931Z,71.09
2018-11-14T13:30:41.568Z,72.00
2018-11-14T13:33:10.892Z,71.29
2018-11-14T13:35:40.391Z,71.12
2018-11-14T13:38:09.878Z,72.03
2018-11-14T13:40:39.287Z,72.93
2018-11-14T13:43:08.255Z,72.84
2018-11-14T13:45:37.653Z,72.26
2018-11-14T13:48:07.048Z,71.79
2018-11-14T13:50:36.677Z,72.19
2018-11-14T13:53:06.484Z,73.20
2018-11-14T13:55:35.823Z,72.62
2018-11-14T13:58:05.380Z,72.54
2018-11-14T14:00:34.687Z,72.42
2018-11-14T14:03:03.972Z,72.37
2018-11-14T14:05:33.497Z,72.76
2018-11-14T14:08:02.819Z,72.04
2018-11-14T14:10:32.134Z,71.83
2018-11-14T14:13:01.652Z,72.55
2018-11-14T14:15:31.405Z,73.35
2018-11-14T14:18:00.695Z,72.65
2018-11-14T14:20:30.005Z,72.67
2018-11-14T14:22:59.395Z,71.99
2018-11-14T14:25:28.924Z,71.57
2018-11-14T14:27:58.224Z,71.54
2018-11-14T14:30:27.575Z,71.08
2018-11-14T14:32:56.902Z,71.77
2018-11-14T14:35:26.338Z,72.78
2018-11-14T14:37:55.751Z,72.93
2018-11-14T14:40:25.049Z,72.74
2018-11-14T14:42:54.353Z,72.78
2018-11-14T14:45:24.977Z,73.61
2018-11-14T14:47:54.277Z,73.59
2018-11-14T14:50:23.550Z,73.49
2018-11-14T14:52:52.905Z,73.21
2018-11-14T14:55:23.762Z,73.78
2018-11-14T14:57:53.117Z,74.48
2018-11-14T15:00:24.794Z,74.71
2018-11-14T15:02:54.260Z,74.04
2018-11-14T15:05:23.573Z,75.40
2018-11-14T15:07:52.917Z,76.15
2018-11-14T15:10:23.431Z,76.10
2018-11-14T15:12:52.837Z,76.44
2018-11-14T15:15:22.289Z,76.46
2018-11-14T15:17:51.536Z,76.07
2018-11-14T15:20:22.352Z,75.83
2018-11-14T15:22:52.242Z,75.05
2018-11-14T15:25:22.787Z,75.19
2018-11-14T15:27:52.681Z,75.42
2018-11-14T15:30:23.948Z,76.28
2018-11-14T15:32:53.347Z,76.21
2018-11-14T15:35:22.859Z,75.68
2018-11-14T15:37:52.176Z,75.71
2018-11-14T15:40:22.740Z,76.26
2018-11-14T15:42:52.590Z,76.77
2018-11-14T15:45:24.397Z,76.89
2018-11-14T15:47:53.772Z,76.69
2018-11-14T15:50:24.653Z,77.02
2018-11-14T15:52:55.238Z,76.90
2018-11-14T15:55:24.678Z,77.57
2018-11-14T15:57:54.216Z,77.91
2018-11-14T16:00:28.954Z,76.98
2018-11-14T16:02:58.420Z,77.12
2018-11-14T16:05:29.544Z,76.19
2018-11-14T16:08:00.206Z,76.56
2018-11-14T16:10:30.433Z,76.07
2018-11-14T16:12:59.765Z,75.76
2018-11-14T16:15:32.771Z,76.29
2018-11-14T16:18:02.135Z,76.49
2018-11-14T16:20:31.450Z,77.44
2018-11-14T16:23:01.003Z,77.36
2018-11-14T16:25:30.382Z,77.20
2018-11-14T16:28:00.886Z,76.67
2018-11-14T16:30:32.243Z,77.71
2018-11-14T16:33:03.133Z,77.83
2018-11-14T16:35:32.492Z,77.30
2018-11-14T16:38:02.210Z,78.93
2018-11-14T16:40:32.760Z,78.10
2018-11-14T16:43:03.458Z,78.11
2018-11-14T16:45:32.723Z,78.16
2018-11-14T16:48:02.062Z,77.56
2018-11-14T16:50:31.424Z,78.02
2018-11-14T16:53:00.764Z,78.04
2018-11-14T16:55:30.047Z,77.34
2018-11-14T16:57:59.515Z,77.21
2018-11-14T17:00:31.132Z,77.13
2018-11-14T17:03:00.816Z,76.70
2018-11-14T17:05:31.468Z,77.27
2018-11-14T17:08:00.759Z,77.37
2018-11-14T17:10:30.092Z,77.32
2018-11-14T17:13:00.289Z,76.92
2018-11-14T17:15:29.983Z,77.03
2018-11-14T17:18:00.428Z,76.99
2018-11-14T17:20:29.720Z,77.78
2018-11-14T17:22:58.986Z,77.97
2018-11-14T17:25:28.416Z,78.33
2018-11-14T17:27:58.013Z,78.86
2018-11-14T17:30:28.600Z,79.43
2018-11-14T17:32:57.975Z,79.00
2018-11-14T17:35:27.918Z,79.59
2018-11-14T17:37:57.294Z,79.53
2018-11-14T17:40:29.045Z,79.38
2018-11-14T17:42:58.502Z,80.01
2018-11-14T17:45:29.061Z,80.33
2018-11-14T17:47:59.104Z,79.54
2018-11-14T17:50:31.479Z,78.85
2018-11-14T17:53:01.791Z,78.57
2018-11-14T17:55:31.544Z,78.70
2018-11-14T17:58:01.210Z,78.62
2018-11-14T18:00:31.532Z,79.02
2018-11-14T18:03:01.007Z,78.87
2018-11-14T18:05:31.218Z,78.87
2018-11-14T18:08:00.511Z,79.57
2018-11-14T18:10:30.814Z,79.71
2018-11-14T18:13:01.199Z,79.51
2018-11-14T18:15:30.631Z,79.48
2018-11-14T18:18:00.065Z,79.66
2018-11-14T18:20:31.116Z,79.24
2018-11-14T18:23:00.555Z,78.78
2018-11-14T18:25:29.959Z,79.15
2018-11-14T18:27:59.329Z,79.50
2018-11-14T18:30:29.966Z,79.67
2018-11-14T18:33:00.450Z,79.53
2018-11-14T18:35:29.951Z,78.23
2018-11-14T18:38:00.182Z,77.93
2018-11-14T18:40:31.492Z,78.08
2018-11-14T18:43:00.860Z,78.13
2018-11-14T18:45:33.455Z,77.84
2018-11-14T18:48:09.388Z,77.63
2018-11-14T18:50:38.774Z,78.23
2018-11-14T18:53:08.160Z,77.52
2018-11-14T18:55:37.588Z,76.89
2018-11-14T18:58:07.876Z,78.05
2018-11-14T19:00:37.245Z,78.53
2018-11-14T19:03:06.699Z,78.25
2018-11-14T19:05:36.073Z,77.86
2018-11-14T19:08:05.782Z,77.99
2018-11-14T19:10:35.687Z,78.25
2018-11-14T19:13:05.483Z,78.12
2018-11-14T19:15:36.240Z,78.11
2018-11-14T19:18:05.849Z,78.56
2018-11-14T19:20:36.531Z,78.40
2018-11-14T19:23:06.860Z,79.25
2018-11-14T19:25:37.292Z,79.39
2018-11-14T19:28:07.123Z,79.90
2018-11-14T19:30:37.677Z,78.87
2018-11-14T19:33:07.031Z,79.31
2018-11-14T19:35:36.365Z,79.19
2018-11-14T19:38:06.088Z,79.46
2018-11-14T19:40:36.918Z,79.76
2018-11-14T19:43:10.830Z,79.30
2018-11-14T19:45:41.273Z,79.56
2018-11-14T19:48:10.629Z,80.79
2018-11-14T19:50:40.062Z,80.15
2018-11-14T19:53:09.593Z,81.33
2018-11-14T19:55:39.038Z,81.54
2018-11-14T19:58:08.441Z,81.41
2018-11-14T20:00:39.172Z,80.77
2018-11-14T20:03:09.455Z,80.75
2018-11-14T20:05:38.933Z,80.33
2018-11-14T20:08:08.439Z,80.56
2018-11-14T20:10:37.938Z,81.44
2018-11-14T20:13:07.531Z,80.53
2018-11-14T20:15:38.169Z,80.08
2018-11-14T20:18:08.523Z,80.20
2018-11-14T20:20:39.710Z,79.43
2018-11-14T20:23:09.214Z,79.04
2018-11-14T20:25:38.550Z,79.53
2018-11-14T20:28:08.064Z,79.90
2018-11-14T20:30:38.740Z,79.82
2018-11-14T20:33:10.025Z,79.29
2018-11-14T20:35:39.351Z,78.61
2018-11-14T20:38:08.723Z,78.37
2018-11-14T20:40:42.712Z,78.12
2018-11-14T20:43:12.213Z,78.93
2018-11-14T20:45:41.576Z,79.16
2018-11-14T20:48:10.967Z,78.80
2018-11-14T20:50:40.292Z,78.23
2018-11-14T20:53:09.626Z,78.55
2018-11-14T20:55:39.306Z,77.92
2018-11-14T20:58:08.752Z,78.22
2018-11-14T21:00:38.959Z,78.49
2018-11-14T21:03:08.960Z,77.70
2018-11-14T21:05:38.305Z,77.37
2018-11-14T21:08:07.736Z,77.61
2018-11-14T21:10:37.202Z,77.73
2018-11-14T21:13:07.054Z,77.68
2018-11-14T21:16:03.310Z,78.77
2018-11-14T21:18:35.587Z,79.08
2018-11-14T21:21:07.136Z,79.03
2018-11-14T21:23:36.452Z,78.56
2018-11-14T21:26:05.768Z,78.05
2018-11-14T21:28:35.123Z,77.45
2018-11-14T21:31:04.485Z,77.40
2018-11-14T21:33:33.831Z,78.73
2018-11-14T21:36:03.179Z,78.69
2018-11-14T21:38:32.594Z,78.73
2018-11-14T21:41:01.779Z,77.78
2018-11-14T21:43:31.370Z,78.36
2018-11-14T21:46:01.500Z,77.89
2018-11-14T21:48:30.814Z,77.68
2018-11-14T21:51:00.159Z,77.82
2018-11-14T21:53:29.698Z,77.93
2018-11-14T21:55:59.275Z,77.42
2018-11-14T21:58:28.585Z,76.84
2018-11-14T22:00:58.002Z,77.11
2018-11-14T22:03:27.310Z,76.86
2018-11-14T22:05:56.917Z,76.80
2018-11-14T22:08:26.247Z,76.42
2018-11-14T22:10:55.657Z,75.84
2018-11-14T22:13:24.988Z,75.92
2018-11-14T22:15:54.420Z,75.89
2018-11-14T22:18:23.735Z,76.18
2018-11-14T22:20:53.175Z,75.82
2018-11-14T22:23:22.548Z,76.92
2018-11-14T22:25:51.864Z,77.20
2018-11-14T22:28:21.406Z,78.63
2018-11-14T22:30:50.705Z,78.54
2018-11-14T22:33:20.089Z,77.88
2018-11-14T22:35:49.376Z,77.78
2018-11-14T22:38:18.678Z,77.48
2018-11-14T22:40:47.979Z,77.79
2018-11-14T22:43:17.317Z,78.11
2018-11-14T22:45:46.639Z,79.49
2018-11-14T22:48:15.976Z,80.58
2018-11-14T22:50:45.781Z,80.86
2018-11-14T22:53:15.091Z,81.17
2018-11-14T22:55:44.499Z,81.08
2018-11-14T22:58:13.799Z,80.86
2018-11-14T23:00:45.890Z,80.39
2018-11-14T23:03:15.238Z,79.70
2018-11-14T23:05:47.396Z,79.70
2018-11-14T23:08:17.058Z,78.70
2018-11-14T23:10:46.354Z,78.83
2018-11-14T23:13:15.648Z,78.64
2018-11-14T23:15:45.310Z,79.15
2018-11-14T23:18:14.628Z,79.64
2018-11-14T23:20:44.023Z,78.41
2018-11-14T23:23:13.363Z,78.24
2018-11-14T23:25:42.636Z,77.90
2018-11-14T23:28:11.913Z,77.80
2018-11-14T23:30:41.580Z,78.08
2018-11-14T23:33:11.001Z,78.16
2018-11-14T23:35:40.292Z,78.24
2018-11-14T23:38:09.715Z,77.96
2018-11-14T23:40:39.024Z,78.62
2018-11-14T23:43:08.326Z,78.94
2018-11-14T23:45:37.630Z,78.94
2018-11-14T23:48:07.304Z,79.83
2018-11-14T23:50:36.652Z,80.63
2018-11-14T23:53:06.198Z,82.17
2018-11-14T23:55:35.707Z,82.39
2018-11-14T23:58:05.131Z,82.07
